sensor_id;sensor_type;location;lat;lon;timestamp;temperature;humidity
76878;DHT22;65843;50.692;12.844;2023-03-31T00:00:15;19.70;56.30
76878;DHT22;65843;50.692;12.844;2023-03-31T00:01:16;19.70;55.80
76878;DHT22;65843;50.692;12.844;2023-03-31T00:02:17;19.70;55.80
76878;DHT22;65843;50.692;12.844;2023-03-31T00:03:21;19.70;54.80
76878;DHT22;65843;50.692;12.844;2023-03-31T00:04:23;19.70;55.00
76878;DHT22;65843;50.692;12.844;2023-03-31T00:05:25;19.70;55.20
76878;DHT22;65843;50.692;12.844;2023-03-31T00:06:27;19.70;54.90
76878;DHT22;65843;50.692;12.844;2023-03-31T00:07:28;19.70;55.30
76878;DHT22;65843;50.692;12.844;2023-03-31T00:08:29;19.70;54.70
76878;DHT22;65843;50.692;12.844;2023-03-31T00:09:35;19.70;55.40
76878;DHT22;65843;50.692;12.844;2023-03-31T00:10:36;19.70;55.40
76878;DHT22;65843;50.692;12.844;2023-03-31T00:11:37;19.70;54.20
76878;DHT22;65843;50.692;12.844;2023-03-31T00:12:38;19.70;55.50
76878;DHT22;65843;50.692;12.844;2023-03-31T00:13:39;19.70;54.80
76878;DHT22;65843;50.692;12.844;2023-03-31T00:14:40;19.70;54.70
76878;DHT22;65843;50.692;12.844;2023-03-31T00:15:41;19.70;54.50
76878;DHT22;65843;50.692;12.844;2023-03-31T00:16:42;19.70;54.60
76878;DHT22;65843;50.692;12.844;2023-03-31T00:17:43;19.70;54.60
76878;DHT22;65843;50.692;12.844;2023-03-31T00:18:46;19.70;54.50
76878;DHT22;65843;50.692;12.844;2023-03-31T00:19:50;19.70;54.80
76878;DHT22;65843;50.692;12.844;2023-03-31T00:20:52;19.70;54.40
76878;DHT22;65843;50.692;12.844;2023-03-31T00:21:53;19.70;55.00
76878;DHT22;65843;50.692;12.844;2023-03-31T00:22:54;19.70;54.30
76878;DHT22;65843;50.692;12.844;2023-03-31T00:23:58;19.70;54.80
76878;DHT22;65843;50.692;12.844;2023-03-31T00:24:59;19.70;54.40
76878;DHT22;65843;50.692;12.844;2023-03-31T00:26:00;19.70;54.70
76878;DHT22;65843;50.692;12.844;2023-03-31T00:27:02;19.70;54.60
76878;DHT22;65843;50.692;12.844;2023-03-31T00:28:03;19.70;54.80
76878;DHT22;65843;50.692;12.844;2023-03-31T00:29:05;19.70;54.50
76878;DHT22;65843;50.692;12.844;2023-03-31T00:30:06;19.70;54.10
76878;DHT22;65843;50.692;12.844;2023-03-31T00:31:07;19.70;55.20
76878;DHT22;65843;50.692;12.844;2023-03-31T00:32:08;19.70;54.00
76878;DHT22;65843;50.692;12.844;2023-03-31T00:33:09;19.60;54.50
76878;DHT22;65843;50.692;12.844;2023-03-31T00:34:10;19.70;54.20
76878;DHT22;65843;50.692;12.844;2023-03-31T00:35:11;19.60;54.10
76878;DHT22;65843;50.692;12.844;2023-03-31T00:36:12;19.70;54.50
76878;DHT22;65843;50.692;12.844;2023-03-31T00:37:13;19.60;54.50
76878;DHT22;65843;50.692;12.844;2023-03-31T00:38:16;19.70;54.60
76878;DHT22;65843;50.692;12.844;2023-03-31T00:39:21;19.70;54.80
76878;DHT22;65843;50.692;12.844;2023-03-31T00:40:24;19.60;54.80
76878;DHT22;65843;50.692;12.844;2023-03-31T00:41:25;19.60;55.00
76878;DHT22;65843;50.692;12.844;2023-03-31T00:42:26;19.60;54.60
76878;DHT22;65843;50.692;12.844;2023-03-31T00:43:32;19.60;54.60
76878;DHT22;65843;50.692;12.844;2023-03-31T00:44:34;19.60;54.80
76878;DHT22;65843;50.692;12.844;2023-03-31T00:45:37;19.60;54.70
76878;DHT22;65843;50.692;12.844;2023-03-31T00:48:55;19.60;54.40
76878;DHT22;65843;50.692;12.844;2023-03-31T00:49:57;19.50;54.70
76878;DHT22;65843;50.692;12.844;2023-03-31T00:50:58;19.50;54.60
76878;DHT22;65843;50.692;12.844;2023-03-31T00:52:03;19.50;54.60
76878;DHT22;65843;50.692;12.844;2023-03-31T00:53:10;19.50;54.50
76878;DHT22;65843;50.692;12.844;2023-03-31T00:54:12;19.50;54.40
76878;DHT22;65843;50.692;12.844;2023-03-31T00:55:15;19.50;54.50
76878;DHT22;65843;50.692;12.844;2023-03-31T00:56:17;19.50;54.40
76878;DHT22;65843;50.692;12.844;2023-03-31T00:57:18;19.50;54.50
76878;DHT22;65843;50.692;12.844;2023-03-31T00:58:21;19.60;54.50
76878;DHT22;65843;50.692;12.844;2023-03-31T00:59:29;19.50;54.40
76878;DHT22;65843;50.692;12.844;2023-03-31T01:00:30;19.50;54.30
76878;DHT22;65843;50.692;12.844;2023-03-31T01:01:31;19.50;54.50
76878;DHT22;65843;50.692;12.844;2023-03-31T01:02:35;19.50;54.40
76878;DHT22;65843;50.692;12.844;2023-03-31T01:03:41;19.50;54.40
76878;DHT22;65843;50.692;12.844;2023-03-31T01:04:43;19.50;54.30
76878;DHT22;65843;50.692;12.844;2023-03-31T01:05:46;19.50;54.40
76878;DHT22;65843;50.692;12.844;2023-03-31T01:07:36;19.50;54.40
76878;DHT22;65843;50.692;12.844;2023-03-31T01:08:12;19.50;54.40
76878;DHT22;65843;50.692;12.844;2023-03-31T01:09:14;19.50;54.60
76878;DHT22;65843;50.692;12.844;2023-03-31T01:10:16;19.50;54.40
76878;DHT22;65843;50.692;12.844;2023-03-31T01:11:18;19.50;54.40
76878;DHT22;65843;50.692;12.844;2023-03-31T01:12:19;19.50;54.20
76878;DHT22;65843;50.692;12.844;2023-03-31T01:13:21;19.50;54.50
76878;DHT22;65843;50.692;12.844;2023-03-31T01:14:23;19.50;54.30
76878;DHT22;65843;50.692;12.844;2023-03-31T01:15:24;19.50;54.60
76878;DHT22;65843;50.692;12.844;2023-03-31T01:16:25;19.50;54.30
76878;DHT22;65843;50.692;12.844;2023-03-31T01:17:26;19.50;54.30
76878;DHT22;65843;50.692;12.844;2023-03-31T01:18:28;19.50;54.00
76878;DHT22;65843;50.692;12.844;2023-03-31T01:19:33;19.50;54.10
76878;DHT22;65843;50.692;12.844;2023-03-31T01:32:05;19.50;54.10
76878;DHT22;65843;50.692;12.844;2023-03-31T01:34:18;19.50;54.10
76878;DHT22;65843;50.692;12.844;2023-03-31T01:37:59;19.50;54.40
76878;DHT22;65843;50.692;12.844;2023-03-31T01:40:28;19.50;53.90
76878;DHT22;65843;50.692;12.844;2023-03-31T01:47:18;19.50;54.20
76878;DHT22;65843;50.692;12.844;2023-03-31T01:49:33;19.50;53.90
76878;DHT22;65843;50.692;12.844;2023-03-31T01:53:11;19.50;53.60
76878;DHT22;65843;50.692;12.844;2023-03-31T01:54:20;19.50;54.00
76878;DHT22;65843;50.692;12.844;2023-03-31T01:55:31;19.50;53.90
76878;DHT22;65843;50.692;12.844;2023-03-31T01:56:34;19.50;53.70
76878;DHT22;65843;50.692;12.844;2023-03-31T01:57:40;19.50;53.70
76878;DHT22;65843;50.692;12.844;2023-03-31T01:58:42;19.50;54.20
76878;DHT22;65843;50.692;12.844;2023-03-31T02:00:54;19.50;53.90
76878;DHT22;65843;50.692;12.844;2023-03-31T02:02:05;19.50;54.00
76878;DHT22;65843;50.692;12.844;2023-03-31T02:03:14;19.50;54.20
76878;DHT22;65843;50.692;12.844;2023-03-31T02:04:21;19.50;54.00
76878;DHT22;65843;50.692;12.844;2023-03-31T02:05:23;19.50;54.00
76878;DHT22;65843;50.692;12.844;2023-03-31T02:06:29;19.50;53.80
76878;DHT22;65843;50.692;12.844;2023-03-31T02:07:42;19.50;54.00
76878;DHT22;65843;50.692;12.844;2023-03-31T02:08:46;19.50;54.00
76878;DHT22;65843;50.692;12.844;2023-03-31T02:09:49;19.50;54.00
76878;DHT22;65843;50.692;12.844;2023-03-31T02:10:53;19.50;54.10
76878;DHT22;65843;50.692;12.844;2023-03-31T02:11:54;19.50;54.00
76878;DHT22;65843;50.692;12.844;2023-03-31T02:12:56;19.50;54.00
76878;DHT22;65843;50.692;12.844;2023-03-31T02:13:58;19.50;54.20
76878;DHT22;65843;50.692;12.844;2023-03-31T02:18:02;19.50;54.00
76878;DHT22;65843;50.692;12.844;2023-03-31T02:19:05;19.50;54.10
76878;DHT22;65843;50.692;12.844;2023-03-31T02:20:09;19.50;54.10
76878;DHT22;65843;50.692;12.844;2023-03-31T02:21:14;19.50;54.10
76878;DHT22;65843;50.692;12.844;2023-03-31T02:22:16;19.50;54.00
76878;DHT22;65843;50.692;12.844;2023-03-31T02:23:21;19.50;53.90
76878;DHT22;65843;50.692;12.844;2023-03-31T02:24:23;19.50;54.10
76878;DHT22;65843;50.692;12.844;2023-03-31T02:25:27;19.50;53.90
76878;DHT22;65843;50.692;12.844;2023-03-31T02:26:33;19.50;54.00
76878;DHT22;65843;50.692;12.844;2023-03-31T02:27:39;19.50;53.80
76878;DHT22;65843;50.692;12.844;2023-03-31T02:28:41;19.50;53.80
76878;DHT22;65843;50.692;12.844;2023-03-31T02:29:42;19.50;54.20
76878;DHT22;65843;50.692;12.844;2023-03-31T02:33:22;19.50;54.10
76878;DHT22;65843;50.692;12.844;2023-03-31T02:34:23;19.50;53.90
76878;DHT22;65843;50.692;12.844;2023-03-31T02:35:24;19.50;54.10
76878;DHT22;65843;50.692;12.844;2023-03-31T02:36:25;19.50;54.20
76878;DHT22;65843;50.692;12.844;2023-03-31T02:37:27;19.50;53.80
76878;DHT22;65843;50.692;12.844;2023-03-31T02:38:29;19.50;54.30
76878;DHT22;65843;50.692;12.844;2023-03-31T02:39:33;19.50;54.10
76878;DHT22;65843;50.692;12.844;2023-03-31T02:40:35;19.50;54.20
76878;DHT22;65843;50.692;12.844;2023-03-31T02:41:36;19.50;54.00
76878;DHT22;65843;50.692;12.844;2023-03-31T02:42:37;19.50;54.40
76878;DHT22;65843;50.692;12.844;2023-03-31T02:43:38;19.50;54.40
76878;DHT22;65843;50.692;12.844;2023-03-31T02:44:39;19.50;54.60
76878;DHT22;65843;50.692;12.844;2023-03-31T02:45:47;19.50;54.60
76878;DHT22;65843;50.692;12.844;2023-03-31T02:46:49;19.50;54.40
76878;DHT22;65843;50.692;12.844;2023-03-31T02:47:50;19.50;54.40
76878;DHT22;65843;50.692;12.844;2023-03-31T02:48:52;19.50;54.30
76878;DHT22;65843;50.692;12.844;2023-03-31T02:49:56;19.50;54.20
76878;DHT22;65843;50.692;12.844;2023-03-31T02:53:12;19.50;54.10
76878;DHT22;65843;50.692;12.844;2023-03-31T02:59:02;19.40;54.00
76878;DHT22;65843;50.692;12.844;2023-03-31T03:00:10;19.40;53.90
76878;DHT22;65843;50.692;12.844;2023-03-31T03:06:40;19.40;53.90
76878;DHT22;65843;50.692;12.844;2023-03-31T03:07:18;19.40;54.00
76878;DHT22;65843;50.692;12.844;2023-03-31T03:08:42;19.40;54.00
76878;DHT22;65843;50.692;12.844;2023-03-31T03:12:07;19.40;54.00
76878;DHT22;65843;50.692;12.844;2023-03-31T03:14:18;19.40;54.10
76878;DHT22;65843;50.692;12.844;2023-03-31T03:15:25;19.40;54.20
76878;DHT22;65843;50.692;12.844;2023-03-31T03:16:29;19.40;54.50
76878;DHT22;65843;50.692;12.844;2023-03-31T03:17:42;19.40;54.00
76878;DHT22;65843;50.692;12.844;2023-03-31T03:18:51;19.40;54.00
76878;DHT22;65843;50.692;12.844;2023-03-31T03:19:53;19.40;54.10
76878;DHT22;65843;50.692;12.844;2023-03-31T03:20:54;19.40;54.40
76878;DHT22;65843;50.692;12.844;2023-03-31T03:21:55;19.40;54.40
76878;DHT22;65843;50.692;12.844;2023-03-31T03:22:57;19.40;54.00
76878;DHT22;65843;50.692;12.844;2023-03-31T03:23:58;19.40;54.20
76878;DHT22;65843;50.692;12.844;2023-03-31T03:24:59;19.40;53.90
76878;DHT22;65843;50.692;12.844;2023-03-31T03:26:01;19.40;54.30
76878;DHT22;65843;50.692;12.844;2023-03-31T03:27:01;19.40;53.90
76878;DHT22;65843;50.692;12.844;2023-03-31T03:28:02;19.40;54.00
76878;DHT22;65843;50.692;12.844;2023-03-31T03:29:03;19.40;54.20
76878;DHT22;65843;50.692;12.844;2023-03-31T03:30:05;19.40;54.20
76878;DHT22;65843;50.692;12.844;2023-03-31T03:31:06;19.40;54.30
76878;DHT22;65843;50.692;12.844;2023-03-31T03:32:09;19.30;53.70
76878;DHT22;65843;50.692;12.844;2023-03-31T03:33:10;19.30;54.20
76878;DHT22;65843;50.692;12.844;2023-03-31T03:34:16;19.30;53.70
76878;DHT22;65843;50.692;12.844;2023-03-31T03:35:18;19.30;54.00
76878;DHT22;65843;50.692;12.844;2023-03-31T03:36:19;19.30;53.80
76878;DHT22;65843;50.692;12.844;2023-03-31T03:37:20;19.30;54.40
76878;DHT22;65843;50.692;12.844;2023-03-31T03:38:21;19.30;54.20
76878;DHT22;65843;50.692;12.844;2023-03-31T03:39:22;19.30;54.00
76878;DHT22;65843;50.692;12.844;2023-03-31T03:40:22;19.30;53.80
76878;DHT22;65843;50.692;12.844;2023-03-31T03:41:23;19.30;54.10
76878;DHT22;65843;50.692;12.844;2023-03-31T03:42:24;19.30;54.90
76878;DHT22;65843;50.692;12.844;2023-03-31T03:43:25;19.40;54.10
76878;DHT22;65843;50.692;12.844;2023-03-31T03:44:26;19.40;53.80
76878;DHT22;65843;50.692;12.844;2023-03-31T03:45:27;19.40;54.20
76878;DHT22;65843;50.692;12.844;2023-03-31T03:46:28;19.30;54.60
76878;DHT22;65843;50.692;12.844;2023-03-31T03:47:29;19.30;54.50
76878;DHT22;65843;50.692;12.844;2023-03-31T03:48:30;19.40;54.00
76878;DHT22;65843;50.692;12.844;2023-03-31T03:49:31;19.30;54.30
76878;DHT22;65843;50.692;12.844;2023-03-31T03:50:34;19.30;54.40
76878;DHT22;65843;50.692;12.844;2023-03-31T03:51:35;19.30;53.90
76878;DHT22;65843;50.692;12.844;2023-03-31T03:52:36;19.30;54.70
76878;DHT22;65843;50.692;12.844;2023-03-31T03:53:37;19.30;54.10
76878;DHT22;65843;50.692;12.844;2023-03-31T03:54:37;19.30;54.00
76878;DHT22;65843;50.692;12.844;2023-03-31T03:55:38;19.30;54.30
76878;DHT22;65843;50.692;12.844;2023-03-31T03:56:39;19.30;54.40
76878;DHT22;65843;50.692;12.844;2023-03-31T03:57:40;19.30;54.60
76878;DHT22;65843;50.692;12.844;2023-03-31T03:58:41;19.30;54.60
76878;DHT22;65843;50.692;12.844;2023-03-31T03:59:42;19.30;54.70
76878;DHT22;65843;50.692;12.844;2023-03-31T04:00:43;19.30;54.30
76878;DHT22;65843;50.692;12.844;2023-03-31T04:01:45;19.30;54.70
76878;DHT22;65843;50.692;12.844;2023-03-31T04:02:45;19.30;54.20
76878;DHT22;65843;50.692;12.844;2023-03-31T04:03:46;19.30;54.10
76878;DHT22;65843;50.692;12.844;2023-03-31T04:04:47;19.30;54.10
76878;DHT22;65843;50.692;12.844;2023-03-31T04:05:48;19.30;54.10
76878;DHT22;65843;50.692;12.844;2023-03-31T04:06:50;19.30;54.20
76878;DHT22;65843;50.692;12.844;2023-03-31T04:07:51;19.30;54.60
76878;DHT22;65843;50.692;12.844;2023-03-31T04:08:51;19.30;54.40
76878;DHT22;65843;50.692;12.844;2023-03-31T04:09:52;19.30;54.20
76878;DHT22;65843;50.692;12.844;2023-03-31T04:10:53;19.30;54.20
76878;DHT22;65843;50.692;12.844;2023-03-31T04:11:54;19.30;54.40
76878;DHT22;65843;50.692;12.844;2023-03-31T04:12:55;19.30;54.30
76878;DHT22;65843;50.692;12.844;2023-03-31T04:13:56;19.30;54.40
76878;DHT22;65843;50.692;12.844;2023-03-31T04:14:57;19.30;54.60
76878;DHT22;65843;50.692;12.844;2023-03-31T04:15:58;19.30;54.70
76878;DHT22;65843;50.692;12.844;2023-03-31T04:16:59;19.30;54.30
76878;DHT22;65843;50.692;12.844;2023-03-31T04:18:00;19.30;54.10
76878;DHT22;65843;50.692;12.844;2023-03-31T04:19:00;19.30;54.10
76878;DHT22;65843;50.692;12.844;2023-03-31T04:20:05;19.30;54.40
76878;DHT22;65843;50.692;12.844;2023-03-31T04:21:09;19.30;54.70
76878;DHT22;65843;50.692;12.844;2023-03-31T04:22:11;19.30;54.60
76878;DHT22;65843;50.692;12.844;2023-03-31T04:23:14;19.30;54.80
76878;DHT22;65843;50.692;12.844;2023-03-31T04:24:15;19.30;54.60
76878;DHT22;65843;50.692;12.844;2023-03-31T04:25:21;19.30;54.60
76878;DHT22;65843;50.692;12.844;2023-03-31T04:26:22;19.30;54.70
76878;DHT22;65843;50.692;12.844;2023-03-31T04:27:30;19.30;54.50
76878;DHT22;65843;50.692;12.844;2023-03-31T04:28:36;19.30;54.60
76878;DHT22;65843;50.692;12.844;2023-03-31T04:29:38;19.30;54.70
76878;DHT22;65843;50.692;12.844;2023-03-31T04:30:38;19.30;54.70
76878;DHT22;65843;50.692;12.844;2023-03-31T04:31:40;19.30;54.30
76878;DHT22;65843;50.692;12.844;2023-03-31T04:32:44;19.30;54.30
76878;DHT22;65843;50.692;12.844;2023-03-31T04:33:45;19.30;54.20
76878;DHT22;65843;50.692;12.844;2023-03-31T04:34:47;19.30;54.60
76878;DHT22;65843;50.692;12.844;2023-03-31T04:35:50;19.30;54.10
76878;DHT22;65843;50.692;12.844;2023-03-31T04:36:52;19.30;54.20
76878;DHT22;65843;50.692;12.844;2023-03-31T04:37:55;19.30;54.30
76878;DHT22;65843;50.692;12.844;2023-03-31T04:38:58;19.30;54.40
76878;DHT22;65843;50.692;12.844;2023-03-31T04:40:00;19.30;54.40
76878;DHT22;65843;50.692;12.844;2023-03-31T04:41:07;19.30;54.40
76878;DHT22;65843;50.692;12.844;2023-03-31T04:42:08;19.30;54.40
76878;DHT22;65843;50.692;12.844;2023-03-31T04:43:09;19.30;54.30
76878;DHT22;65843;50.692;12.844;2023-03-31T04:44:10;19.30;54.10
76878;DHT22;65843;50.692;12.844;2023-03-31T04:45:11;19.30;54.10
76878;DHT22;65843;50.692;12.844;2023-03-31T04:46:12;19.30;53.90
76878;DHT22;65843;50.692;12.844;2023-03-31T04:47:13;19.30;53.80
76878;DHT22;65843;50.692;12.844;2023-03-31T04:48:14;19.30;53.60
76878;DHT22;65843;50.692;12.844;2023-03-31T04:49:14;19.30;53.80
76878;DHT22;65843;50.692;12.844;2023-03-31T04:50:15;19.30;53.80
76878;DHT22;65843;50.692;12.844;2023-03-31T04:51:16;19.30;53.50
76878;DHT22;65843;50.692;12.844;2023-03-31T04:52:17;19.30;53.60
76878;DHT22;65843;50.692;12.844;2023-03-31T04:53:18;19.30;53.40
76878;DHT22;65843;50.692;12.844;2023-03-31T04:54:19;19.30;53.90
76878;DHT22;65843;50.692;12.844;2023-03-31T04:55:20;19.30;53.70
76878;DHT22;65843;50.692;12.844;2023-03-31T04:56:21;19.30;53.30
76878;DHT22;65843;50.692;12.844;2023-03-31T04:57:22;19.20;53.30
76878;DHT22;65843;50.692;12.844;2023-03-31T04:58:23;19.20;53.10
76878;DHT22;65843;50.692;12.844;2023-03-31T04:59:24;19.20;53.50
76878;DHT22;65843;50.692;12.844;2023-03-31T05:00:25;19.20;53.20
76878;DHT22;65843;50.692;12.844;2023-03-31T05:01:26;19.20;53.20
76878;DHT22;65843;50.692;12.844;2023-03-31T05:02:27;19.20;53.50
76878;DHT22;65843;50.692;12.844;2023-03-31T05:03:28;19.20;53.30
76878;DHT22;65843;50.692;12.844;2023-03-31T05:04:29;19.20;53.50
76878;DHT22;65843;50.692;12.844;2023-03-31T05:05:30;19.20;53.40
76878;DHT22;65843;50.692;12.844;2023-03-31T05:06:31;19.20;53.60
76878;DHT22;65843;50.692;12.844;2023-03-31T05:07:32;19.20;53.90
76878;DHT22;65843;50.692;12.844;2023-03-31T05:08:33;19.20;54.50
76878;DHT22;65843;50.692;12.844;2023-03-31T05:09:34;19.20;54.00
76878;DHT22;65843;50.692;12.844;2023-03-31T05:10:34;19.20;53.60
76878;DHT22;65843;50.692;12.844;2023-03-31T05:11:35;19.20;53.80
76878;DHT22;65843;50.692;12.844;2023-03-31T05:12:37;19.30;53.50
76878;DHT22;65843;50.692;12.844;2023-03-31T05:13:38;19.30;53.40
76878;DHT22;65843;50.692;12.844;2023-03-31T05:14:39;19.30;53.60
76878;DHT22;65843;50.692;12.844;2023-03-31T05:15:40;19.30;54.00
76878;DHT22;65843;50.692;12.844;2023-03-31T05:16:41;19.30;53.50
76878;DHT22;65843;50.692;12.844;2023-03-31T05:17:42;19.30;53.90
76878;DHT22;65843;50.692;12.844;2023-03-31T05:18:44;19.30;53.40
76878;DHT22;65843;50.692;12.844;2023-03-31T05:19:46;19.30;53.30
76878;DHT22;65843;50.692;12.844;2023-03-31T05:20:46;19.40;53.10
76878;DHT22;65843;50.692;12.844;2023-03-31T05:21:47;19.40;53.90
76878;DHT22;65843;50.692;12.844;2023-03-31T05:22:48;19.40;53.10
76878;DHT22;65843;50.692;12.844;2023-03-31T05:23:50;19.40;54.00
76878;DHT22;65843;50.692;12.844;2023-03-31T05:24:51;19.40;53.30
76878;DHT22;65843;50.692;12.844;2023-03-31T05:25:52;19.40;54.80
76878;DHT22;65843;50.692;12.844;2023-03-31T05:26:53;19.40;53.30
76878;DHT22;65843;50.692;12.844;2023-03-31T05:27:54;19.40;54.90
76878;DHT22;65843;50.692;12.844;2023-03-31T05:28:56;19.40;55.00
76878;DHT22;65843;50.692;12.844;2023-03-31T05:29:57;19.50;54.20
76878;DHT22;65843;50.692;12.844;2023-03-31T05:30:58;19.50;53.70
76878;DHT22;65843;50.692;12.844;2023-03-31T05:32:00;19.50;54.40
76878;DHT22;65843;50.692;12.844;2023-03-31T05:33:01;19.50;53.10
76878;DHT22;65843;50.692;12.844;2023-03-31T05:34:02;19.40;53.60
76878;DHT22;65843;50.692;12.844;2023-03-31T05:35:03;19.40;53.10
76878;DHT22;65843;50.692;12.844;2023-03-31T05:36:04;19.40;53.30
76878;DHT22;65843;50.692;12.844;2023-03-31T05:37:05;19.40;54.50
76878;DHT22;65843;50.692;12.844;2023-03-31T05:38:06;19.40;54.20
76878;DHT22;65843;50.692;12.844;2023-03-31T05:39:07;19.40;54.30
76878;DHT22;65843;50.692;12.844;2023-03-31T05:40:09;19.40;54.30
76878;DHT22;65843;50.692;12.844;2023-03-31T05:41:10;19.30;54.00
76878;DHT22;65843;50.692;12.844;2023-03-31T05:42:11;19.30;52.20
76878;DHT22;65843;50.692;12.844;2023-03-31T05:43:12;19.30;51.70
76878;DHT22;65843;50.692;12.844;2023-03-31T05:44:13;19.30;51.20
76878;DHT22;65843;50.692;12.844;2023-03-31T05:45:15;19.20;50.40
76878;DHT22;65843;50.692;12.844;2023-03-31T05:46:16;19.20;50.70
76878;DHT22;65843;50.692;12.844;2023-03-31T05:47:18;19.20;50.90
76878;DHT22;65843;50.692;12.844;2023-03-31T05:48:18;19.20;51.90
76878;DHT22;65843;50.692;12.844;2023-03-31T05:49:21;19.10;52.00
76878;DHT22;65843;50.692;12.844;2023-03-31T05:50:21;19.10;52.20
76878;DHT22;65843;50.692;12.844;2023-03-31T05:51:22;19.10;51.60
76878;DHT22;65843;50.692;12.844;2023-03-31T05:52:23;19.00;51.50
76878;DHT22;65843;50.692;12.844;2023-03-31T05:53:25;19.00;51.70
76878;DHT22;65843;50.692;12.844;2023-03-31T05:54:26;19.00;52.10
76878;DHT22;65843;50.692;12.844;2023-03-31T05:55:27;19.00;51.90
76878;DHT22;65843;50.692;12.844;2023-03-31T05:56:28;19.00;51.90
76878;DHT22;65843;50.692;12.844;2023-03-31T05:57:29;19.00;51.90
76878;DHT22;65843;50.692;12.844;2023-03-31T05:58:32;19.00;51.80
76878;DHT22;65843;50.692;12.844;2023-03-31T05:59:34;19.00;51.90
76878;DHT22;65843;50.692;12.844;2023-03-31T06:00:35;19.00;51.10
76878;DHT22;65843;50.692;12.844;2023-03-31T06:01:37;19.00;51.40
76878;DHT22;65843;50.692;12.844;2023-03-31T06:02:38;19.00;50.70
76878;DHT22;65843;50.692;12.844;2023-03-31T06:03:40;18.90;51.30
76878;DHT22;65843;50.692;12.844;2023-03-31T06:04:41;18.90;51.50
76878;DHT22;65843;50.692;12.844;2023-03-31T06:05:46;18.90;51.40
76878;DHT22;65843;50.692;12.844;2023-03-31T06:06:47;18.90;51.60
76878;DHT22;65843;50.692;12.844;2023-03-31T06:07:50;18.90;51.50
76878;DHT22;65843;50.692;12.844;2023-03-31T06:08:50;18.90;48.70
76878;DHT22;65843;50.692;12.844;2023-03-31T06:09:51;18.70;49.10
76878;DHT22;65843;50.692;12.844;2023-03-31T06:10:52;18.60;48.90
76878;DHT22;65843;50.692;12.844;2023-03-31T06:11:53;18.50;48.70
76878;DHT22;65843;50.692;12.844;2023-03-31T06:12:54;18.30;48.40
76878;DHT22;65843;50.692;12.844;2023-03-31T06:13:55;18.00;49.00
76878;DHT22;65843;50.692;12.844;2023-03-31T06:14:56;17.90;49.50
76878;DHT22;65843;50.692;12.844;2023-03-31T06:15:58;17.80;51.10
76878;DHT22;65843;50.692;12.844;2023-03-31T06:16:59;17.80;51.40
76878;DHT22;65843;50.692;12.844;2023-03-31T06:18:00;17.80;52.20
76878;DHT22;65843;50.692;12.844;2023-03-31T06:19:01;17.80;51.30
76878;DHT22;65843;50.692;12.844;2023-03-31T06:20:02;17.80;51.00
76878;DHT22;65843;50.692;12.844;2023-03-31T06:21:05;17.90;51.30
76878;DHT22;65843;50.692;12.844;2023-03-31T06:22:06;17.90;51.50
76878;DHT22;65843;50.692;12.844;2023-03-31T06:23:07;18.00;50.90
76878;DHT22;65843;50.692;12.844;2023-03-31T06:24:08;18.00;50.70
76878;DHT22;65843;50.692;12.844;2023-03-31T06:25:09;17.90;51.90
76878;DHT22;65843;50.692;12.844;2023-03-31T06:26:11;18.00;52.20
76878;DHT22;65843;50.692;12.844;2023-03-31T06:27:12;18.00;52.20
76878;DHT22;65843;50.692;12.844;2023-03-31T06:28:13;18.00;52.20
76878;DHT22;65843;50.692;12.844;2023-03-31T06:29:14;18.10;52.20
76878;DHT22;65843;50.692;12.844;2023-03-31T06:30:15;18.10;52.30
76878;DHT22;65843;50.692;12.844;2023-03-31T06:31:17;18.20;52.30
76878;DHT22;65843;50.692;12.844;2023-03-31T06:32:18;18.20;52.20
76878;DHT22;65843;50.692;12.844;2023-03-31T06:33:19;18.30;52.20
76878;DHT22;65843;50.692;12.844;2023-03-31T06:34:20;18.30;52.00
76878;DHT22;65843;50.692;12.844;2023-03-31T06:35:21;18.40;52.10
76878;DHT22;65843;50.692;12.844;2023-03-31T06:36:22;18.40;52.00
76878;DHT22;65843;50.692;12.844;2023-03-31T06:37:23;18.50;52.00
76878;DHT22;65843;50.692;12.844;2023-03-31T06:38:24;18.50;51.90
76878;DHT22;65843;50.692;12.844;2023-03-31T06:39:25;18.60;51.90
76878;DHT22;65843;50.692;12.844;2023-03-31T06:40:26;18.60;51.60
76878;DHT22;65843;50.692;12.844;2023-03-31T06:41:27;18.60;52.00
76878;DHT22;65843;50.692;12.844;2023-03-31T06:42:28;18.70;51.80
76878;DHT22;65843;50.692;12.844;2023-03-31T06:43:29;18.70;52.00
76878;DHT22;65843;50.692;12.844;2023-03-31T06:44:30;18.70;51.90
76878;DHT22;65843;50.692;12.844;2023-03-31T06:45:31;18.70;51.90
76878;DHT22;65843;50.692;12.844;2023-03-31T06:46:32;18.80;51.90
76878;DHT22;65843;50.692;12.844;2023-03-31T06:47:33;18.80;51.90
76878;DHT22;65843;50.692;12.844;2023-03-31T06:48:34;18.80;51.80
76878;DHT22;65843;50.692;12.844;2023-03-31T06:49:35;18.80;51.80
76878;DHT22;65843;50.692;12.844;2023-03-31T06:50:36;18.90;51.80
76878;DHT22;65843;50.692;12.844;2023-03-31T06:51:37;18.90;52.00
76878;DHT22;65843;50.692;12.844;2023-03-31T06:52:39;18.90;51.90
76878;DHT22;65843;50.692;12.844;2023-03-31T06:53:40;18.90;51.90
76878;DHT22;65843;50.692;12.844;2023-03-31T06:54:41;18.90;51.80
76878;DHT22;65843;50.692;12.844;2023-03-31T06:55:42;18.90;51.80
76878;DHT22;65843;50.692;12.844;2023-03-31T06:56:43;18.90;51.40
76878;DHT22;65843;50.692;12.844;2023-03-31T06:57:44;18.90;51.80
76878;DHT22;65843;50.692;12.844;2023-03-31T06:58:46;18.90;51.80
76878;DHT22;65843;50.692;12.844;2023-03-31T06:59:47;18.90;51.70
76878;DHT22;65843;50.692;12.844;2023-03-31T07:00:48;19.00;51.60
76878;DHT22;65843;50.692;12.844;2023-03-31T07:01:50;19.00;51.50
76878;DHT22;65843;50.692;12.844;2023-03-31T07:02:51;19.00;51.10
76878;DHT22;65843;50.692;12.844;2023-03-31T07:03:53;19.00;50.90
76878;DHT22;65843;50.692;12.844;2023-03-31T07:04:54;19.00;51.70
76878;DHT22;65843;50.692;12.844;2023-03-31T07:05:55;19.00;51.90
76878;DHT22;65843;50.692;12.844;2023-03-31T07:06:58;19.00;51.90
76878;DHT22;65843;50.692;12.844;2023-03-31T07:08:00;19.00;51.80
76878;DHT22;65843;50.692;12.844;2023-03-31T07:09:01;19.00;51.60
76878;DHT22;65843;50.692;12.844;2023-03-31T07:10:04;19.00;51.80
76878;DHT22;65843;50.692;12.844;2023-03-31T07:11:05;19.00;51.80
76878;DHT22;65843;50.692;12.844;2023-03-31T07:12:06;19.00;51.60
76878;DHT22;65843;50.692;12.844;2023-03-31T07:13:07;19.10;51.40
76878;DHT22;65843;50.692;12.844;2023-03-31T07:14:08;19.10;51.70
76878;DHT22;65843;50.692;12.844;2023-03-31T07:15:09;19.10;51.40
76878;DHT22;65843;50.692;12.844;2023-03-31T07:16:10;19.10;51.10